createdAt,value
2017-11-10T00:00:02.768Z,100464.53
2017-11-10T00:02:28.936Z,100465.25
2017-11-10T00:04:55.120Z,100463.77
2017-11-10T00:07:21.323Z,100469.69
2017-11-10T00:09:47.483Z,100477.04
2017-11-10T00:12:13.630Z,100470.50
2017-11-10T00:14:39.819Z,100470.36
2017-11-10T00:17:05.981Z,100469.12
2017-11-10T00:19:32.155Z,100468.20
2017-11-10T00:21:58.427Z,100474.16
2017-11-10T00:24:24.598Z,100479.92
2017-11-10T00:26:50.776Z,100478.99
2017-11-10T00:29:16.985Z,100484.50
2017-11-10T00:31:43.161Z,100484.52
2017-11-10T00:34:09.404Z,100485.61
2017-11-10T00:36:35.670Z,100484.05
2017-11-10T00:39:01.907Z,100488.00
2017-11-10T00:41:28.284Z,100485.84
2017-11-10T00:43:54.585Z,100480.86
2017-11-10T00:46:20.824Z,100484.05
2017-11-10T00:48:47.050Z,100486.95
2017-11-10T00:51:13.330Z,100485.96
2017-11-10T00:53:39.565Z,100484.25
2017-11-10T00:56:05.805Z,100482.62
2017-11-10T00:58:32.074Z,100474.73
2017-11-10T01:00:58.332Z,100476.90
2017-11-10T01:03:24.568Z,100468.80
2017-11-10T01:05:50.840Z,100468.44
2017-11-10T01:08:17.046Z,100464.42
2017-11-10T01:10:43.289Z,100469.69
2017-11-10T01:13:09.590Z,100464.98
2017-11-10T01:15:35.842Z,100461.91
2017-11-10T01:18:02.088Z,100457.02
2017-11-10T01:20:28.382Z,100458.81
2017-11-10T01:22:54.612Z,100463.92
2017-11-10T01:25:20.843Z,100459.69
2017-11-10T01:27:47.091Z,100454.69
2017-11-10T01:30:13.312Z,100458.97
2017-11-10T01:32:39.559Z,100461.55
2017-11-10T01:35:05.850Z,100461.75
2017-11-10T01:37:32.080Z,100458.72
2017-11-10T01:39:58.327Z,100458.25
2017-11-10T01:42:24.828Z,100455.88
2017-11-10T01:44:51.060Z,100454.81
2017-11-10T01:47:17.292Z,100457.17
2017-11-10T01:49:43.587Z,100456.09
2017-11-10T01:52:09.816Z,100452.33
2017-11-10T01:54:36.049Z,100456.67
2017-11-10T01:57:02.341Z,100455.38
2017-11-10T01:59:28.584Z,100454.64
2017-11-10T02:01:54.867Z,100452.03
2017-11-10T02:04:21.141Z,100451.87
2017-11-10T02:06:47.372Z,100450.48
2017-11-10T02:09:13.636Z,100444.72
2017-11-10T02:11:40.140Z,100446.92
2017-11-10T02:14:06.424Z,100447.84
2017-11-10T02:16:32.685Z,100449.95
2017-11-10T02:18:58.994Z,100441.49
2017-11-10T02:21:25.307Z,100438.52
2017-11-10T02:23:51.530Z,100441.71
2017-11-10T02:26:17.822Z,100441.91
2017-11-10T02:28:44.057Z,100441.49
2017-11-10T02:31:10.282Z,100443.94
2017-11-10T02:33:36.639Z,100445.37
2017-11-10T02:36:02.894Z,100442.03
2017-11-10T02:38:29.135Z,100444.75
2017-11-10T02:40:55.401Z,100445.06
2017-11-10T02:43:21.625Z,100448.67
2017-11-10T02:45:47.858Z,100446.47
2017-11-10T02:48:14.130Z,100445.69
2017-11-10T02:50:40.364Z,100445.06
2017-11-10T02:53:06.610Z,100448.47
2017-11-10T02:55:32.891Z,100441.77
2017-11-10T02:57:59.141Z,100448.66
2017-11-10T03:00:25.585Z,100442.86
2017-11-10T03:02:51.878Z,100448.52
2017-11-10T03:05:18.117Z,100444.72
2017-11-10T03:07:44.338Z,100444.34
2017-11-10T03:10:10.622Z,100442.62
2017-11-10T03:12:36.856Z,100441.88
2017-11-10T03:15:03.112Z,100431.98
2017-11-10T03:17:29.413Z,100428.78
2017-11-10T03:19:55.641Z,100436.14
2017-11-10T03:22:21.877Z,100435.12
2017-11-10T03:24:48.161Z,100433.75
2017-11-10T03:27:14.401Z,100435.50
2017-11-10T03:29:40.630Z,100432.41
2017-11-10T03:32:06.893Z,100427.80
2017-11-10T03:34:33.135Z,100433.12
2017-11-10T03:36:59.364Z,100437.06
2017-11-10T03:39:25.643Z,100434.39
2017-11-10T03:41:51.898Z,100429.24
2017-11-10T03:44:18.146Z,100426.43
2017-11-10T03:46:44.415Z,100429.55
2017-11-10T03:49:10.644Z,100427.80
2017-11-10T03:51:37.178Z,100424.72
2017-11-10T03:54:03.463Z,100421.55
2017-11-10T03:56:29.714Z,100430.27
2017-11-10T03:58:56.097Z,100434.08
2017-11-10T04:01:22.410Z,100425.33
2017-11-10T04:03:48.647Z,100429.97
2017-11-10T04:06:14.892Z,100423.67
2017-11-10T04:08:41.389Z,100421.92
2017-11-10T04:11:07.831Z,100417.30
2017-11-10T04:13:34.485Z,100420.28
2017-11-10T04:16:01.093Z,100419.45
2017-11-10T04:18:27.538Z,100423.58
2017-11-10T04:20:53.802Z,100421.92
2017-11-10T04:23:20.045Z,100428.59
2017-11-10T04:25:46.285Z,100422.00
2017-11-10T04:28:12.585Z,100424.78
2017-11-10T04:30:38.812Z,100421.17
2017-11-10T04:33:05.034Z,100420.08
2017-11-10T04:35:31.301Z,100421.11
2017-11-10T04:37:57.533Z,100429.04
2017-11-10T04:40:23.785Z,100421.94
2017-11-10T04:42:50.069Z,100422.86
2017-11-10T04:45:16.482Z,100424.50
2017-11-10T04:47:42.739Z,100427.59
2017-11-10T04:50:09.017Z,100428.11
2017-11-10T04:52:35.581Z,100426.39
2017-11-10T04:55:02.076Z,100434.20
2017-11-10T04:57:28.620Z,100434.09
2017-11-10T04:59:55.040Z,100439.55
2017-11-10T05:02:21.483Z,100441.16
2017-11-10T05:04:47.973Z,100439.38
2017-11-10T05:07:14.589Z,100436.70
2017-11-10T05:09:41.119Z,100443.73
2017-11-10T05:12:07.663Z,100443.53
2017-11-10T05:14:34.097Z,100436.66
2017-11-10T05:17:00.723Z,100435.22
2017-11-10T05:19:27.218Z,100440.99
2017-11-10T05:21:53.591Z,100437.80
2017-11-10T05:24:20.081Z,100434.57
2017-11-10T05:26:46.467Z,100444.66
2017-11-10T05:29:12.697Z,100445.83
2017-11-10T05:31:39.153Z,100442.32
2017-11-10T05:34:05.777Z,100451.56
2017-11-10T05:36:32.212Z,100446.77
2017-11-10T05:38:58.839Z,100449.34
2017-11-10T05:41:25.100Z,100447.11
2017-11-10T05:43:51.487Z,100443.95
2017-11-10T05:46:18.138Z,100445.50
2017-11-10T05:48:44.467Z,100448.18
2017-11-10T05:51:10.716Z,100448.42
2017-11-10T05:53:36.977Z,100446.43
2017-11-10T05:56:03.203Z,100444.44
2017-11-10T05:58:29.676Z,100452.77
2017-11-10T06:00:55.940Z,100447.33
2017-11-10T06:03:22.559Z,100450.86
2017-11-10T06:05:48.905Z,100442.10
2017-11-10T06:08:15.209Z,100455.01
2017-11-10T06:10:41.469Z,100442.34
2017-11-10T06:13:07.699Z,100459.77
2017-11-10T06:15:33.967Z,100459.91
2017-11-10T06:18:00.217Z,100462.82
2017-11-10T06:20:26.565Z,100463.65
2017-11-10T06:22:52.844Z,100463.94
2017-11-10T06:25:19.092Z,100457.32
2017-11-10T06:27:45.345Z,100468.07
2017-11-10T06:30:11.647Z,100473.45
2017-11-10T06:32:37.888Z,100473.41
2017-11-10T06:35:04.129Z,100471.53
2017-11-10T06:37:30.409Z,100470.50
2017-11-10T06:39:56.653Z,100469.05
2017-11-10T06:42:22.874Z,100471.76
2017-11-10T06:44:49.135Z,100469.08
2017-11-10T06:47:15.352Z,100469.60
2017-11-10T06:49:41.618Z,100465.05
2017-11-10T06:52:07.880Z,100465.77
2017-11-10T06:54:34.128Z,100468.70
2017-11-10T06:57:00.407Z,100469.30
2017-11-10T06:59:26.689Z,100466.61
2017-11-10T07:01:52.926Z,100469.19
2017-11-10T07:04:19.146Z,100466.50
2017-11-10T07:06:45.425Z,100471.86
2017-11-10T07:09:11.666Z,100466.69
2017-11-10T07:11:37.914Z,100474.11
2017-11-10T07:14:04.189Z,100474.09
2017-11-10T07:16:30.432Z,100470.38
2017-11-10T07:18:56.656Z,100475.20
2017-11-10T07:21:23.085Z,100473.61
2017-11-10T07:23:49.315Z,100471.38
2017-11-10T07:26:15.570Z,100469.80
2017-11-10T07:28:41.859Z,100472.66
2017-11-10T07:31:08.201Z,100479.14
2017-11-10T07:33:34.432Z,100472.61
2017-11-10T07:36:00.705Z,100473.78
2017-11-10T07:38:26.963Z,100476.30
2017-11-10T07:40:53.194Z,100476.17
2017-11-10T07:43:19.467Z,100473.41
2017-11-10T07:45:45.697Z,100475.20
2017-11-10T07:48:11.934Z,100473.34
2017-11-10T07:50:38.193Z,100464.23
2017-11-10T07:53:04.440Z,100467.93
2017-11-10T07:55:30.685Z,100475.56
2017-11-10T07:57:56.970Z,100474.30
2017-11-10T08:00:23.213Z,100472.44
2017-11-10T08:02:49.444Z,100468.88
2017-11-10T08:05:15.737Z,100468.20
2017-11-10T08:07:42.026Z,100467.05
2017-11-10T08:10:08.298Z,100467.37
2017-11-10T08:12:34.568Z,100466.74
2017-11-10T08:15:00.928Z,100463.59
2017-11-10T08:17:27.154Z,100470.78
2017-11-10T08:19:53.418Z,100469.38
2017-11-10T08:22:19.685Z,100462.22
2017-11-10T08:24:45.914Z,100471.84
2017-11-10T08:27:12.194Z,100478.97
2017-11-10T08:29:38.436Z,100477.09
2017-11-10T08:32:04.679Z,100474.94
2017-11-10T08:34:30.949Z,100475.64
2017-11-10T08:36:57.172Z,100477.88
2017-11-10T08:39:23.422Z,100471.81
2017-11-10T08:41:49.714Z,100471.26
2017-11-10T08:44:15.942Z,100472.49
2017-11-10T08:46:42.172Z,100468.97
2017-11-10T08:49:08.445Z,100469.99
2017-11-10T08:51:34.677Z,100463.46
2017-11-10T08:54:00.921Z,100467.47
2017-11-10T08:56:27.215Z,100464.42
2017-11-10T08:58:53.444Z,100458.73
2017-11-10T09:01:19.677Z,100459.02
2017-11-10T09:03:45.966Z,100464.42
2017-11-10T09:06:12.187Z,100449.78
2017-11-10T09:08:38.425Z,100451.69
2017-11-10T09:11:04.688Z,100454.69
2017-11-10T09:13:30.901Z,100451.67
2017-11-10T09:15:57.300Z,100445.60
2017-11-10T09:18:23.582Z,100450.35
2017-11-10T09:20:49.825Z,100448.95
2017-11-10T09:23:16.070Z,100450.14
2017-11-10T09:25:42.372Z,100448.22
2017-11-10T09:28:08.619Z,100438.58
2017-11-10T09:30:34.849Z,100436.80
2017-11-10T09:33:01.127Z,100431.09
2017-11-10T09:35:27.371Z,100426.73
2017-11-10T09:37:53.603Z,100425.22
2017-11-10T09:40:19.886Z,100417.47
2017-11-10T09:42:46.207Z,100413.45
2017-11-10T09:45:12.453Z,100413.80
2017-11-10T09:47:38.737Z,100411.89
2017-11-10T09:50:05.096Z,100398.08
2017-11-10T09:52:31.333Z,100398.22
2017-11-10T09:54:57.606Z,100397.38
2017-11-10T09:57:23.828Z,100398.92
2017-11-10T09:59:50.066Z,100398.23
2017-11-10T10:02:16.444Z,100388.34
2017-11-10T10:04:42.688Z,100387.73
2017-11-10T10:07:08.926Z,100382.95
2017-11-10T10:09:35.196Z,100385.89
2017-11-10T10:12:01.447Z,100377.84
2017-11-10T10:14:27.694Z,100378.98
2017-11-10T10:16:53.980Z,100378.41
2017-11-10T10:19:20.227Z,100371.89
2017-11-10T10:21:46.445Z,100370.47
2017-11-10T10:24:12.729Z,100371.34
2017-11-10T10:26:38.960Z,100366.05
2017-11-10T10:29:05.209Z,100363.79
2017-11-10T10:31:31.468Z,100357.00
2017-11-10T10:33:57.708Z,100354.86
2017-11-10T10:36:23.931Z,100348.94
2017-11-10T10:38:50.208Z,100341.56
2017-11-10T10:41:16.457Z,100339.35
2017-11-10T10:43:42.683Z,100325.67
2017-11-10T10:46:08.970Z,100328.09
2017-11-10T10:48:35.207Z,100328.14
2017-11-10T10:51:01.454Z,100329.97
2017-11-10T10:53:27.780Z,100324.84
2017-11-10T10:55:54.022Z,100312.38
2017-11-10T10:58:20.271Z,100317.76
2017-11-10T11:00:46.546Z,100311.84
2017-11-10T11:03:12.787Z,100311.91
2017-11-10T11:05:39.007Z,100306.91
2017-11-10T11:08:05.299Z,100309.62
2017-11-10T11:10:31.540Z,100312.28
2017-11-10T11:12:57.786Z,100304.13
2017-11-10T11:15:24.061Z,100295.80
2017-11-10T11:17:50.308Z,100289.74
2017-11-10T11:20:16.554Z,100280.67
2017-11-10T11:22:42.841Z,100284.98
2017-11-10T11:25:09.082Z,100286.49
2017-11-10T11:27:35.343Z,100282.94
2017-11-10T11:30:01.628Z,100277.75
2017-11-10T11:32:27.852Z,100282.05
2017-11-10T11:34:54.067Z,100278.24
2017-11-10T11:37:20.327Z,100275.14
2017-11-10T11:39:46.582Z,100275.63
2017-11-10T11:42:12.849Z,100276.88
2017-11-10T11:44:39.148Z,100272.59
2017-11-10T11:47:05.689Z,100273.17
2017-11-10T11:49:31.940Z,100245.25
2017-11-10T11:51:58.231Z,100268.28
2017-11-10T11:54:24.465Z,100262.31
2017-11-10T11:56:50.841Z,100261.16
2017-11-10T11:59:17.121Z,100256.47
2017-11-10T12:01:43.362Z,100256.36
2017-11-10T12:04:09.609Z,100246.38
2017-11-10T12:06:35.880Z,100250.97
2017-11-10T12:09:02.199Z,100247.56
2017-11-10T12:11:28.430Z,100245.22
2017-11-10T12:13:54.706Z,100247.72
2017-11-10T12:16:21.056Z,100248.84
2017-11-10T12:18:47.301Z,100243.98
2017-11-10T12:21:13.573Z,100239.71
2017-11-10T12:23:39.811Z,100232.55
2017-11-10T12:26:06.029Z,100237.14
2017-11-10T12:28:32.305Z,100239.70
2017-11-10T12:30:58.523Z,100239.06
2017-11-10T12:33:24.786Z,100232.27
2017-11-10T12:35:51.055Z,100239.42
2017-11-10T12:38:17.285Z,100243.80
2017-11-10T12:40:43.517Z,100230.37
2017-11-10T12:43:09.789Z,100224.73
2017-11-10T12:45:36.017Z,100227.78
2017-11-10T12:48:02.247Z,100227.66
2017-11-10T12:50:28.513Z,100225.45
2017-11-10T12:52:54.741Z,100213.66
2017-11-10T12:55:20.966Z,100223.47
2017-11-10T12:57:47.249Z,100223.78
2017-11-10T13:00:13.496Z,100232.50
2017-11-10T13:02:39.721Z,100236.98
2017-11-10T13:05:06.022Z,100232.88
2017-11-10T13:07:32.263Z,100228.66
2017-11-10T13:09:58.500Z,100226.35
2017-11-10T13:12:24.805Z,100227.59
2017-11-10T13:14:51.059Z,100222.94
2017-11-10T13:17:17.394Z,100212.58
2017-11-10T13:19:43.830Z,100217.38
2017-11-10T13:22:10.065Z,100215.95
2017-11-10T13:24:36.309Z,100220.70
2017-11-10T13:27:02.575Z,100227.47
2017-11-10T13:29:28.831Z,100227.53
2017-11-10T13:31:55.086Z,100228.77
2017-11-10T13:34:21.357Z,100225.21
2017-11-10T13:36:47.584Z,100231.97
2017-11-10T13:39:13.821Z,100236.70
2017-11-10T13:41:40.108Z,100235.02
2017-11-10T13:44:06.340Z,100234.27
2017-11-10T13:46:32.568Z,100233.35
2017-11-10T13:48:58.851Z,100229.08
2017-11-10T13:51:25.086Z,100225.04
2017-11-10T13:53:51.312Z,100228.98
2017-11-10T13:56:17.581Z,100238.44
2017-11-10T13:58:43.808Z,100237.05
2017-11-10T14:01:10.034Z,100238.72
2017-11-10T14:03:36.295Z,100231.23
2017-11-10T14:06:02.541Z,100229.63
2017-11-10T14:08:28.781Z,100236.58
2017-11-10T14:10:55.048Z,100239.38
2017-11-10T14:13:21.289Z,100236.81
2017-11-10T14:15:47.527Z,100237.31
2017-11-10T14:18:13.804Z,100241.81
2017-11-10T14:20:40.223Z,100233.64
2017-11-10T14:23:06.467Z,100241.10
2017-11-10T14:25:32.834Z,100242.05
2017-11-10T14:27:59.068Z,100244.74
2017-11-10T14:30:25.310Z,100239.27
2017-11-10T14:32:51.581Z,100244.09
2017-11-10T14:35:17.799Z,100242.78
2017-11-10T14:37:44.168Z,100244.72
2017-11-10T14:40:10.438Z,100241.72
2017-11-10T14:42:36.679Z,100244.01
2017-11-10T14:45:02.922Z,100243.34
2017-11-10T14:47:29.206Z,100240.67
2017-11-10T14:49:55.440Z,100242.47
2017-11-10T14:52:21.661Z,100247.58
2017-11-10T14:54:47.954Z,100246.99
2017-11-10T14:57:14.182Z,100250.84
2017-11-10T14:59:40.411Z,100247.66
2017-11-10T15:02:06.681Z,100245.45
2017-11-10T15:04:32.973Z,100249.97
2017-11-10T15:06:59.226Z,100249.88
2017-11-10T15:09:25.470Z,100248.66
2017-11-10T15:11:52.099Z,100256.22
2017-11-10T15:14:18.346Z,100257.56
2017-11-10T15:16:44.730Z,100261.10
2017-11-10T15:19:11.180Z,100248.58
2017-11-10T15:21:37.389Z,100248.91
2017-11-10T15:24:03.624Z,100244.16
2017-11-10T15:26:29.907Z,100247.41
2017-11-10T15:28:56.128Z,100252.80
2017-11-10T15:31:22.381Z,100262.56
2017-11-10T15:33:48.666Z,100268.03
2017-11-10T15:36:14.916Z,100259.43
2017-11-10T15:38:41.145Z,100259.15
2017-11-10T15:41:07.454Z,100261.74
2017-11-10T15:43:33.781Z,100260.84
2017-11-10T15:46:00.024Z,100259.85
2017-11-10T15:48:26.288Z,100267.56
2017-11-10T15:50:52.514Z,100266.38
2017-11-10T15:53:18.752Z,100274.61
2017-11-10T15:55:45.064Z,100269.61
2017-11-10T15:58:11.306Z,100272.48
2017-11-10T16:00:37.549Z,100273.41
2017-11-10T16:03:03.807Z,100271.66
2017-11-10T16:05:30.025Z,100277.41
2017-11-10T16:07:56.269Z,100278.23
2017-11-10T16:10:22.549Z,100274.83
2017-11-10T16:12:48.778Z,100272.69
2017-11-10T16:15:15.007Z,100262.60
2017-11-10T16:17:41.314Z,100267.98
2017-11-10T16:20:07.551Z,100270.67
2017-11-10T16:22:33.782Z,100266.87
2017-11-10T16:25:00.059Z,100273.66
2017-11-10T16:27:26.498Z,100271.10
2017-11-10T16:29:52.945Z,100268.40
2017-11-10T16:32:19.262Z,100270.87
2017-11-10T16:34:45.509Z,100263.05
2017-11-10T16:37:11.723Z,100259.73
2017-11-10T16:39:37.987Z,100264.88
2017-11-10T16:42:04.205Z,100263.84
2017-11-10T16:44:30.414Z,100264.02
2017-11-10T16:46:56.683Z,100264.52
2017-11-10T16:49:22.923Z,100267.35
2017-11-10T16:51:49.145Z,100270.55
2017-11-10T16:54:15.476Z,100263.81
2017-11-10T16:56:41.726Z,100265.95
2017-11-10T16:59:07.929Z,100264.01
2017-11-10T17:01:34.170Z,100270.61
2017-11-10T17:04:00.383Z,100270.63
2017-11-10T17:06:26.736Z,100258.70
2017-11-10T17:08:53.145Z,100264.21
2017-11-10T17:11:19.417Z,100268.78
2017-11-10T17:13:45.672Z,100264.47
2017-11-10T17:16:11.927Z,100265.08
2017-11-10T17:18:38.156Z,100232.47
2017-11-10T17:21:04.365Z,100261.97
2017-11-10T17:23:30.597Z,100268.98
2017-11-10T17:25:56.856Z,100257.13
2017-11-10T17:28:23.073Z,100263.77
2017-11-10T17:30:49.280Z,100266.28
2017-11-10T17:33:15.568Z,100258.22
2017-11-10T17:35:41.790Z,100261.63
2017-11-10T17:38:08.015Z,100261.20
2017-11-10T17:40:34.392Z,100263.63
2017-11-10T17:43:01.028Z,100261.84
2017-11-10T17:45:27.537Z,100258.69
2017-11-10T17:47:54.052Z,100257.67
2017-11-10T17:50:20.498Z,100258.46
2017-11-10T17:52:46.955Z,100252.90
2017-11-10T17:55:13.448Z,100254.20
2017-11-10T17:57:40.041Z,100259.47
2017-11-10T18:00:06.311Z,100260.72
2017-11-10T18:02:32.909Z,100259.53
2017-11-10T18:04:59.133Z,100254.36
2017-11-10T18:07:25.563Z,100267.57
2017-11-10T18:09:52.078Z,100261.05
2017-11-10T18:12:19.238Z,100262.37
2017-11-10T18:14:45.500Z,100264.84
2017-11-10T18:17:11.782Z,100267.52
2017-11-10T18:19:40.082Z,100265.62
2017-11-10T18:22:06.318Z,100266.38
2017-11-10T18:24:32.593Z,100255.52
2017-11-10T18:26:58.876Z,100253.20
2017-11-10T18:29:26.354Z,100250.73
2017-11-10T18:31:52.664Z,100260.23
2017-11-10T18:34:18.930Z,100258.52
2017-11-10T18:36:45.155Z,100246.92
2017-11-10T18:39:11.429Z,100253.03
2017-11-10T18:41:37.735Z,100249.66
2017-11-10T18:49:07.791Z,100255.22
2017-11-10T18:51:34.098Z,100250.27
2017-11-10T18:54:00.335Z,100248.66
2017-11-10T18:56:26.621Z,100250.98
2017-11-10T18:58:52.869Z,100252.76
2017-11-10T19:01:19.115Z,100255.80
2017-11-10T19:03:45.427Z,100249.14
2017-11-10T19:06:11.689Z,100245.34
2017-11-10T19:08:38.292Z,100248.59
2017-11-10T19:11:04.570Z,100246.45
2017-11-10T19:13:30.796Z,100242.55
2017-11-10T19:15:57.037Z,100241.23
2017-11-10T19:18:23.357Z,100242.17
2017-11-10T19:20:49.706Z,100243.02
2017-11-10T19:23:15.968Z,100238.59
2017-11-10T19:25:42.281Z,100242.61
2017-11-10T19:28:08.507Z,100250.33
2017-11-10T19:30:34.758Z,100241.63
2017-11-10T19:33:01.052Z,100232.21
2017-11-10T19:35:27.316Z,100240.56
2017-11-10T19:40:47.071Z,100229.50
2017-11-10T19:43:13.292Z,100222.53
2017-11-10T19:45:39.524Z,100224.88
2017-11-10T19:48:05.810Z,100220.47
2017-11-10T19:50:32.045Z,100218.95
2017-11-10T19:52:58.288Z,100219.72
2017-11-10T19:55:24.565Z,100222.03
2017-11-10T19:57:50.805Z,100215.62
2017-11-10T20:00:17.073Z,100212.73
2017-11-10T20:02:43.360Z,100216.73
2017-11-10T20:05:09.613Z,100212.13
2017-11-10T20:07:35.845Z,100203.91
2017-11-10T20:10:02.123Z,100203.34
2017-11-10T20:12:28.349Z,100200.36
2017-11-10T20:14:54.564Z,100199.53
2017-11-10T20:17:20.850Z,100190.81
2017-11-10T20:19:47.074Z,100184.05
2017-11-10T20:22:13.386Z,100187.19
2017-11-10T20:24:39.691Z,100187.26
2017-11-10T20:27:05.924Z,100193.06
2017-11-10T20:29:32.158Z,100189.50
2017-11-10T20:31:58.414Z,100178.75
2017-11-10T20:34:24.646Z,100182.42
2017-11-10T20:36:50.937Z,100176.25
2017-11-10T20:39:17.189Z,100159.05
2017-11-10T20:41:43.396Z,100163.88
2017-11-10T20:44:10.756Z,100164.48
2017-11-10T20:46:37.002Z,100170.66
2017-11-10T20:49:03.226Z,100166.22
2017-11-10T20:51:29.464Z,100161.20
2017-11-10T20:53:55.741Z,100162.23
2017-11-10T20:56:21.964Z,100158.92
2017-11-10T20:58:48.188Z,100153.59
2017-11-10T21:01:14.458Z,100150.27
2017-11-10T21:03:40.707Z,100152.48
2017-11-10T21:06:07.015Z,100149.22
2017-11-10T21:08:33.282Z,100139.61
2017-11-10T21:10:59.528Z,100137.30
2017-11-10T21:13:25.778Z,100145.34
2017-11-10T21:15:52.048Z,100152.00
2017-11-10T21:18:18.271Z,100153.11
2017-11-10T21:20:44.532Z,100150.64
2017-11-10T21:23:10.836Z,100147.70
2017-11-10T21:25:37.083Z,100143.09
2017-11-10T21:28:03.309Z,100143.06
2017-11-10T21:30:29.539Z,100152.99
2017-11-10T21:32:55.777Z,100157.53
2017-11-10T21:35:22.005Z,100151.19
2017-11-10T21:37:48.413Z,100150.55
2017-11-10T21:40:14.679Z,100152.89
2017-11-10T21:42:40.905Z,100154.17
2017-11-10T21:45:07.170Z,100150.95
2017-11-10T21:47:33.406Z,100145.28
2017-11-10T21:49:59.717Z,100147.34
2017-11-10T21:52:25.977Z,100146.69
2017-11-10T21:54:52.205Z,100144.59
2017-11-10T21:57:18.422Z,100146.59
2017-11-10T21:59:44.886Z,100140.25
2017-11-10T22:02:11.097Z,100138.23
2017-11-10T22:04:37.326Z,100136.42
2017-11-10T22:07:03.575Z,100134.00
2017-11-10T22:09:29.798Z,100128.59
2017-11-10T22:11:56.018Z,100130.89
2017-11-10T22:14:22.284Z,100136.69
2017-11-10T22:16:48.505Z,100136.39
2017-11-10T22:19:14.760Z,100135.05
2017-11-10T22:21:41.032Z,100128.81
2017-11-10T22:24:07.317Z,100127.53
2017-11-10T22:26:33.543Z,100128.97
2017-11-10T22:28:59.824Z,100130.06
2017-11-10T22:31:26.055Z,100123.77
2017-11-10T22:33:52.287Z,100120.99
2017-11-10T22:36:18.563Z,100123.43
2017-11-10T22:38:44.797Z,100116.11
2017-11-10T22:41:11.131Z,100107.02
2017-11-10T22:43:37.408Z,100106.52
2017-11-10T22:46:03.633Z,100099.79
2017-11-10T22:48:29.851Z,100100.48
2017-11-10T22:50:56.104Z,100102.63
2017-11-10T22:53:22.329Z,100105.47
2017-11-10T22:55:48.575Z,100109.88
2017-11-10T22:58:14.889Z,100100.94
2017-11-10T23:00:41.149Z,100097.28
2017-11-10T23:03:07.407Z,100091.41
2017-11-10T23:05:33.728Z,100095.53
2017-11-10T23:10:32.374Z,100089.70
2017-11-10T23:12:58.639Z,100084.98
2017-11-10T23:15:24.858Z,100083.06
2017-11-10T23:17:51.083Z,100078.49
2017-11-10T23:20:17.363Z,100070.38
2017-11-10T23:22:43.593Z,100074.69
2017-11-10T23:25:09.849Z,100071.26
2017-11-10T23:27:36.158Z,100056.75
2017-11-10T23:30:02.406Z,100067.09
2017-11-10T23:32:28.637Z,100063.20
2017-11-10T23:34:54.889Z,100046.48
2017-11-10T23:37:21.114Z,100052.28
2017-11-10T23:39:47.330Z,100052.52
2017-11-10T23:42:13.614Z,100046.69
2017-11-10T23:44:39.888Z,100044.27
2017-11-10T23:47:06.118Z,100039.03
2017-11-10T23:49:32.368Z,100032.16
2017-11-10T23:51:58.595Z,100029.23
2017-11-10T23:54:24.812Z,100028.62
2017-11-10T23:56:51.251Z,100023.43
2017-11-10T23:59:17.491Z,100015.25
